Northsea Beta — 9HA2594 — position and weather

sailwx.info

Track history (hours):
 
Tides and Currents Weather Stations Pressure Air Temp Water Temp Dewpoint Dewpoint Depression Visibility Wind Speed Wind Dir Waves Ship Positions

Northsea Beta

Last reported at 2016-Dec-06 10:27 UTC. Time now 2016-Dec-06 16:05 UTC.
Position N 52°07' E 003°43'.

Length 110 m; draft 6.6 m.

Type: Tanker. MMSI: 248970000.

Date/timePositionNaut miles runAvg speedWind from/ knotsBaromVisibWave heightAir tempDewpointWater temp
2016-Dec-06 10:27N 52°07' E 003°43'0 0.0
2016-Dec-06 08:33N 52°08' E 003°43'0 0.0
2016-Dec-05 08:33N 52°07' E 003°43'0 0.0
2016-Dec-05 07:30N 52°07' E 003°43'0 0.0
2016-Dec-05 06:18N 52°07' E 003°43'0 0.0
2016-Dec-04 19:30N 52°07' E 003°43'0 0.0
2016-Dec-04 16:12N 52°07' E 003°43'0 0.1
2016-Dec-04 15:33N 52°07' E 003°43'0 0.0
2016-Dec-04 13:33N 52°07' E 003°43'0 0.0
2016-Dec-04 12:27N 52°07' E 003°43'0 0.0
2016-Dec-04 11:33N 52°07' E 003°43'0 0.0
2016-Dec-04 10:33N 52°07' E 003°43'0 0.0
2016-Dec-04 09:27N 52°07' E 003°43'0 0.0
2016-Dec-04 05:27N 52°07' E 003°43'0 0.0
2016-Dec-04 04:21N 52°07' E 003°43'0 0.0
2016-Dec-03 22:33N 52°07' E 003°43'0 0.0
2016-Dec-03 17:21N 52°07' E 003°43'1 1.0
2016-Dec-03 16:32N 52°07' E 003°44'8 8.5
2016-Dec-03 15:33N 52°02' E 003°55'10 9.8
2016-Dec-03 14:33N 51°58' E 004°09'9 7.2
2016-Dec-03 13:23N 51°54' E 004°21'0 0.0
2016-Dec-03 11:05N 51°54' E 004°21'0 0.0
2016-Dec-03 10:23N 51°54' E 004°21'0 0.0
2016-Dec-03 09:26N 51°54' E 004°21'0 0.0
2016-Dec-03 08:26N 51°54' E 004°21'0 0.0
2016-Dec-03 07:23N 51°54' E 004°21'0 0.0
2016-Dec-03 06:32N 51°54' E 004°21'0 0.0
2016-Dec-03 05:26N 51°54' E 004°21'0 0.0
2016-Dec-03 04:32N 51°54' E 004°21'0 0.0
2016-Dec-03 03:23N 51°54' E 004°21'0 0.0
2016-Dec-03 02:29N 51°54' E 004°21'0 0.0
2016-Dec-03 01:32N 51°54' E 004°21'0 0.0
2016-Dec-03 00:29N 51°54' E 004°21'0 0.0
2016-Dec-02 22:05N 51°54' E 004°21'0 0.0
2016-Dec-02 17:26N 51°54' E 004°21'0 0.0
2016-Dec-02 16:32N 51°54' E 004°21'0 0.0
2016-Dec-02 15:26N 51°54' E 004°21'0 0.0
2016-Dec-01 18:34N 51°54' E 004°21'5 5.0
2016-Dec-01 17:34N 51°56' E 004°14'1110.6
2016-Dec-01 16:34N 52°00' E 003°58'79 9.7
2016-Dec-01 08:24N 51°20' E 002°08'9 8.6
2016-Dec-01 07:25N 51°12' E 002°02'8 9.4
2016-Dec-01 06:33N 51°09' E 001°51'10 9.5
2016-Dec-01 05:33N 51°02' E 001°39'7410.3
2016-Nov-30 22:22N 50°20' E 000°03'2613.4
2016-Nov-30 20:24N 50°13' W 000°37'1613.8
2016-Nov-30 19:13N 50°08' W 001°01'1013.1
2016-Nov-30 18:27N 50°05' W 001°16'1212.1
2016-Nov-30 17:29N 50°03' W 001°34'910.2
2016-Nov-30 16:33N 50°01' W 001°48'36 8.4
2016-Nov-30 12:17N 49°51' W 002°42'8 9.9
2016-Nov-30 11:28N 49°49' W 002°54'1110.4
2016-Nov-30 10:24N 49°46' W 003°11'910.8
2016-Nov-30 09:32N 49°40' W 003°23'10511.4
2016-Nov-30 00:24N 48°45' W 005°38'910.3
2016-Nov-29 23:33N 48°37' W 005°44'39 9.0
2016-Nov-29 19:17N 48°01' W 006°07'  
Track history (hours):
 
Tides and Currents Weather Stations Pressure Air Temp Water Temp Dewpoint Dewpoint Depression Visibility Wind Speed Wind Dir Waves Ship Positions

Northsea Beta

Last reported at 2016-Dec-06 10:27 UTC. Time now 2016-Dec-06 16:05 UTC.
Position N 52°07' E 003°43'.

Length 110 m; draft 6.6 m.

Type: Tanker. MMSI: 248970000.

Date/timePositionNaut miles runAvg speedWind from/ knotsBaromVisibWave heightAir tempDewpointWater temp
2016-Dec-06 10:27N 52°07' E 003°43'0 0.0
2016-Dec-06 08:33N 52°08' E 003°43'0 0.0
2016-Dec-05 08:33N 52°07' E 003°43'0 0.0
2016-Dec-05 07:30N 52°07' E 003°43'0 0.0
2016-Dec-05 06:18N 52°07' E 003°43'0 0.0
2016-Dec-04 19:30N 52°07' E 003°43'0 0.0
2016-Dec-04 16:12N 52°07' E 003°43'0 0.1
2016-Dec-04 15:33N 52°07' E 003°43'0 0.0
2016-Dec-04 13:33N 52°07' E 003°43'0 0.0
2016-Dec-04 12:27N 52°07' E 003°43'0 0.0
2016-Dec-04 11:33N 52°07' E 003°43'0 0.0
2016-Dec-04 10:33N 52°07' E 003°43'0 0.0
2016-Dec-04 09:27N 52°07' E 003°43'0 0.0
2016-Dec-04 05:27N 52°07' E 003°43'0 0.0
2016-Dec-04 04:21N 52°07' E 003°43'0 0.0
2016-Dec-03 22:33N 52°07' E 003°43'0 0.0
2016-Dec-03 17:21N 52°07' E 003°43'1 1.0
2016-Dec-03 16:32N 52°07' E 003°44'8 8.5
2016-Dec-03 15:33N 52°02' E 003°55'10 9.8
2016-Dec-03 14:33N 51°58' E 004°09'9 7.2
2016-Dec-03 13:23N 51°54' E 004°21'0 0.0
2016-Dec-03 11:05N 51°54' E 004°21'0 0.0
2016-Dec-03 10:23N 51°54' E 004°21'0 0.0
2016-Dec-03 09:26N 51°54' E 004°21'0 0.0
2016-Dec-03 08:26N 51°54' E 004°21'0 0.0
2016-Dec-03 07:23N 51°54' E 004°21'0 0.0
2016-Dec-03 06:32N 51°54' E 004°21'0 0.0
2016-Dec-03 05:26N 51°54' E 004°21'0 0.0
2016-Dec-03 04:32N 51°54' E 004°21'0 0.0
2016-Dec-03 03:23N 51°54' E 004°21'0 0.0
2016-Dec-03 02:29N 51°54' E 004°21'0 0.0
2016-Dec-03 01:32N 51°54' E 004°21'0 0.0
2016-Dec-03 00:29N 51°54' E 004°21'0 0.0
2016-Dec-02 22:05N 51°54' E 004°21'0 0.0
2016-Dec-02 17:26N 51°54' E 004°21'0 0.0
2016-Dec-02 16:32N 51°54' E 004°21'0 0.0
2016-Dec-02 15:26N 51°54' E 004°21'0 0.0
2016-Dec-01 18:34N 51°54' E 004°21'5 5.0
2016-Dec-01 17:34N 51°56' E 004°14'1110.6
2016-Dec-01 16:34N 52°00' E 003°58'79 9.7
2016-Dec-01 08:24N 51°20' E 002°08'9 8.6
2016-Dec-01 07:25N 51°12' E 002°02'8 9.4
2016-Dec-01 06:33N 51°09' E 001°51'10 9.5
2016-Dec-01 05:33N 51°02' E 001°39'7410.3
2016-Nov-30 22:22N 50°20' E 000°03'2613.4
2016-Nov-30 20:24N 50°13' W 000°37'1613.8
2016-Nov-30 19:13N 50°08' W 001°01'1013.1
2016-Nov-30 18:27N 50°05' W 001°16'1212.1
2016-Nov-30 17:29N 50°03' W 001°34'910.2
2016-Nov-30 16:33N 50°01' W 001°48'36 8.4
2016-Nov-30 12:17N 49°51' W 002°42'8 9.9
2016-Nov-30 11:28N 49°49' W 002°54'1110.4
2016-Nov-30 10:24N 49°46' W 003°11'910.8
2016-Nov-30 09:32N 49°40' W 003°23'10511.4
2016-Nov-30 00:24N 48°45' W 005°38'910.3
2016-Nov-29 23:33N 48°37' W 005°44'39 9.0
2016-Nov-29 19:17N 48°01' W 006°07'  

Dump ship's entire track history